Time;durP1;ratioP1;P1;durP2;ratioP2;P2;SDS_P1;SDS_P2;PMS_P1;PMS_P2;Temp;Humidity;BMP_temperature;BMP_pressure;BME280_temperature;BME280_humidity;BME280_pressure;Samples;Min_cycle;Max_cycle;Signal;HPM_P1;HPM_P2
2021/07/18 00:00:12;;;;;;;7.77;3.57;;;;;;;;;;5058607;28;20674;-73
2021/07/18 00:02:43;;;;;;;4.17;3.20;;;;;;;;;;5057656;28;20519;-73
2021/07/18 00:05:11;;;;;;;3.93;3.50;;;;;;;;;;5057939;28;20449;-73
2021/07/18 00:07:41;;;;;;;8.37;3.30;;;;;;;;;;5057141;28;20551;-71
2021/07/18 00:10:12;;;;;;;7.30;2.93;;;;;;;;;;5057664;28;20473;-72
2021/07/18 00:12:39;;;;;;;9.13;3.23;;;;;;;;;;5058378;28;20454;-72
2021/07/18 00:15:08;;;;;;;6.27;3.27;;;;;;;;;;5056976;28;20563;-72
2021/07/18 00:17:38;;;;;;;9.33;4.03;;;;;;;;;;5057447;28;20865;-72
2021/07/18 00:20:06;;;;;;;10.00;3.77;;;;;;;;;;5057752;28;20491;-72
2021/07/18 00:22:35;;;;;;;6.10;3.47;;;;;;;;;;5057476;28;20459;-73
2021/07/18 00:25:02;;;;;;;4.57;3.07;;;;;;;;;;5057845;28;20453;-73
2021/07/18 00:27:32;;;;;;;5.87;3.03;;;;;;;;;;5057313;28;20613;-73
2021/07/18 00:30:00;;;;;;;9.53;3.60;;;;;;;;;;5056776;28;20749;-73
2021/07/18 00:32:34;;;;;;;11.30;4.07;;;;;;;;;;5065190;28;20481;-74
2021/07/18 00:35:02;;;;;;;5.37;3.33;;;;;;;;;;5057470;28;20571;-74
2021/07/18 00:37:30;;;;;;;7.53;2.97;;;;;;;;;;5070347;28;20717;-73
2021/07/18 00:39:58;;;;;;;7.20;3.10;;;;;;;;;;5072482;28;20910;-73
2021/07/18 00:42:26;;;;;;;5.07;3.40;;;;;;;;;;5077824;28;20455;-73
2021/07/18 00:44:55;;;;;;;9.40;3.40;;;;;;;;;;5077981;28;20453;-73
2021/07/18 00:47:23;;;;;;;6.07;2.90;;;;;;;;;;5077208;28;20448;-73
2021/07/18 00:49:51;;;;;;;7.13;3.60;;;;;;;;;;5077112;28;20550;-74
2021/07/18 00:52:19;;;;;;;8.20;3.20;;;;;;;;;;5076957;28;20510;-73
2021/07/18 00:54:48;;;;;;;6.80;3.50;;;;;;;;;;5076402;28;20768;-73
2021/07/18 00:57:16;;;;;;;4.43;3.20;;;;;;;;;;5076377;28;20452;-73
2021/07/18 00:59:44;;;;;;;6.33;3.30;;;;;;;;;;5075858;28;20460;-73
2021/07/18 01:02:14;;;;;;;12.43;3.23;;;;;;;;;;5076632;28;20510;-73
2021/07/18 01:04:42;;;;;;;5.53;2.80;;;;;;;;;;5076273;28;20461;-73
2021/07/18 01:07:10;;;;;;;6.60;3.43;;;;;;;;;;5076515;28;20510;-73
2021/07/18 01:09:38;;;;;;;5.60;3.40;;;;;;;;;;5076361;28;21116;-72
2021/07/18 01:12:06;;;;;;;4.83;3.20;;;;;;;;;;5076832;28;20536;-72
2021/07/18 01:14:34;;;;;;;7.23;3.33;;;;;;;;;;5076661;28;20557;-73
2021/07/18 01:17:02;;;;;;;5.37;3.30;;;;;;;;;;5076947;28;20457;-72
2021/07/18 01:19:33;;;;;;;5.83;3.53;;;;;;;;;;5076167;28;20484;-73
2021/07/18 01:22:03;;;;;;;5.47;3.10;;;;;;;;;;5075902;28;20745;-73
2021/07/18 01:24:31;;;;;;;8.07;3.53;;;;;;;;;;5076439;28;20464;-73
2021/07/18 01:26:59;;;;;;;7.50;3.40;;;;;;;;;;5076501;28;20444;-73
2021/07/18 01:29:28;;;;;;;9.30;2.70;;;;;;;;;;5075668;28;20465;-73
2021/07/18 01:31:56;;;;;;;4.50;2.30;;;;;;;;;;5076560;28;20461;-73
2021/07/18 01:34:24;;;;;;;5.23;3.40;;;;;;;;;;5076043;28;20520;-72
2021/07/18 01:36:52;;;;;;;6.47;3.90;;;;;;;;;;5074831;28;20950;-72
2021/07/18 01:39:28;;;;;;;6.13;2.37;;;;;;;;;;5071506;28;20894;-74
2021/07/18 01:41:57;;;;;;;5.33;3.60;;;;;;;;;;5055806;28;20463;-74
2021/07/18 01:44:25;;;;;;;4.37;3.20;;;;;;;;;;5055570;28;20777;-73
2021/07/18 01:46:53;;;;;;;4.87;2.87;;;;;;;;;;5056238;28;20497;-73
2021/07/18 01:49:21;;;;;;;5.50;2.97;;;;;;;;;;5056347;28;20462;-73
2021/07/18 01:51:49;;;;;;;9.30;3.33;;;;;;;;;;5056438;28;20523;-73
2021/07/18 01:54:17;;;;;;;7.07;3.30;;;;;;;;;;5056418;28;20727;-73
2021/07/18 01:56:46;;;;;;;4.17;3.00;;;;;;;;;;5056467;28;20518;-73
2021/07/18 01:59:15;;;;;;;7.80;4.43;;;;;;;;;;5056226;28;20473;-72
2021/07/18 02:01:43;;;;;;;11.90;4.67;;;;;;;;;;5056142;28;20479;-73
2021/07/18 02:04:15;;;;;;;7.30;3.40;;;;;;;;;;5060680;28;20853;-74
2021/07/18 02:06:43;;;;;;;6.23;3.10;;;;;;;;;;5076639;28;20448;-73
2021/07/18 02:09:11;;;;;;;7.27;3.40;;;;;;;;;;5076837;28;20526;-73
2021/07/18 02:11:39;;;;;;;4.70;2.77;;;;;;;;;;5076265;28;20521;-72
2021/07/18 02:14:08;;;;;;;5.50;3.20;;;;;;;;;;5076245;28;20467;-72
2021/07/18 02:16:36;;;;;;;6.70;3.10;;;;;;;;;;5076023;28;20464;-72
2021/07/18 02:19:08;;;;;;;6.93;3.57;;;;;;;;;;5076766;28;20859;-74
2021/07/18 02:21:37;;;;;;;5.93;3.57;;;;;;;;;;5076373;28;20518;-74
2021/07/18 02:24:11;;;;;;;5.80;3.00;;;;;;;;;;5076667;28;20460;-73
2021/07/18 02:26:42;;;;;;;5.23;3.63;;;;;;;;;;5076881;28;20451;-74
2021/07/18 02:29:14;;;;;;;6.87;3.03;;;;;;;;;;5076374;28;20449;-74
2021/07/18 02:31:42;;;;;;;11.80;3.60;;;;;;;;;;5076505;28;21003;-73
2021/07/18 02:34:10;;;;;;;8.33;4.40;;;;;;;;;;5076191;28;20456;-73
2021/07/18 02:36:38;;;;;;;3.27;2.77;;;;;;;;;;5076361;28;20736;-73
2021/07/18 02:39:06;;;;;;;10.10;3.33;;;;;;;;;;5076293;28;20544;-73
2021/07/18 02:41:35;;;;;;;7.40;3.70;;;;;;;;;;5076345;28;20484;-73
2021/07/18 02:44:06;;;;;;;5.40;3.63;;;;;;;;;;5076695;28;20479;-73
2021/07/18 02:46:36;;;;;;;5.23;3.47;;;;;;;;;;5077716;28;20448;-73
2021/07/18 02:49:04;;;;;;;10.93;3.77;;;;;;;;;;5076096;28;20448;-73
2021/07/18 02:51:31;;;;;;;6.67;3.63;;;;;;;;;;5076401;28;20456;-73
2021/07/18 02:53:59;;;;;;;4.97;3.63;;;;;;;;;;5076498;28;20441;-73
2021/07/18 02:56:27;;;;;;;6.40;4.37;;;;;;;;;;5076162;28;20489;-74
2021/07/18 02:58:55;;;;;;;9.73;3.67;;;;;;;;;;5076422;28;20771;-73
2021/07/18 03:01:23;;;;;;;10.27;3.80;;;;;;;;;;5075964;28;20464;-73
2021/07/18 03:03:52;;;;;;;7.47;3.70;;;;;;;;;;5075815;28;20487;-73
2021/07/18 03:06:20;;;;;;;7.90;3.10;;;;;;;;;;5075813;28;20488;-72
2021/07/18 03:08:48;;;;;;;8.17;3.80;;;;;;;;;;5076230;28;20489;-72
2021/07/18 03:11:15;;;;;;;11.17;3.67;;;;;;;;;;5075944;28;20452;-73
2021/07/18 03:13:43;;;;;;;6.53;4.20;;;;;;;;;;5076348;28;20514;-72
2021/07/18 03:16:11;;;;;;;4.90;3.07;;;;;;;;;;5079853;28;20484;-73
2021/07/18 03:18:39;;;;;;;6.63;3.23;;;;;;;;;;5080211;28;20797;-73
2021/07/18 03:21:08;;;;;;;11.77;3.87;;;;;;;;;;5079589;28;20537;-73
2021/07/18 03:23:36;;;;;;;7.63;3.57;;;;;;;;;;5079206;28;20459;-73
2021/07/18 03:26:04;;;;;;;6.10;3.10;;;;;;;;;;5079459;28;20441;-73
2021/07/18 03:28:32;;;;;;;9.53;4.03;;;;;;;;;;5079609;28;20468;-73
2021/07/18 03:31:00;;;;;;;6.53;3.33;;;;;;;;;;5079575;28;21067;-73
2021/07/18 03:33:27;;;;;;;7.03;3.93;;;;;;;;;;5079444;28;20857;-74
2021/07/18 03:35:55;;;;;;;6.30;4.47;;;;;;;;;;5079174;28;20553;-74
2021/07/18 03:38:24;;;;;;;9.97;4.77;;;;;;;;;;5079610;28;20513;-73
2021/07/18 03:40:54;;;;;;;11.10;4.37;;;;;;;;;;5078991;28;20448;-73
2021/07/18 03:43:22;;;;;;;8.70;4.20;;;;;;;;;;5079027;28;20762;-73
2021/07/18 03:45:50;;;;;;;10.43;4.30;;;;;;;;;;5078995;28;20449;-73
2021/07/18 03:48:18;;;;;;;7.03;4.37;;;;;;;;;;5078729;28;20445;-73
2021/07/18 03:50:47;;;;;;;8.60;4.13;;;;;;;;;;5083601;28;20482;-73
2021/07/18 03:53:14;;;;;;;5.87;3.93;;;;;;;;;;5078757;28;20471;-73
2021/07/18 03:55:44;;;;;;;6.97;4.43;;;;;;;;;;5078622;28;20492;-73
2021/07/18 03:58:12;;;;;;;7.97;3.90;;;;;;;;;;5078084;28;20746;-73
2021/07/18 04:00:40;;;;;;;10.27;4.40;;;;;;;;;;5078329;28;20455;-73
2021/07/18 04:03:08;;;;;;;5.50;3.53;;;;;;;;;;5078977;28;20456;-73
2021/07/18 04:05:35;;;;;;;6.47;4.23;;;;;;;;;;5078113;28;20915;-73
2021/07/18 04:08:03;;;;;;;11.70;4.77;;;;;;;;;;5078348;28;20472;-73
2021/07/18 04:10:31;;;;;;;6.60;3.70;;;;;;;;;;5078160;28;20476;-73
2021/07/18 04:13:00;;;;;;;8.70;3.87;;;;;;;;;;5078734;28;20490;-73
2021/07/18 04:15:29;;;;;;;6.37;3.30;;;;;;;;;;5078538;28;20484;-72
2021/07/18 04:17:56;;;;;;;9.40;4.40;;;;;;;;;;5078285;28;20744;-73
2021/07/18 04:20:24;;;;;;;6.17;4.60;;;;;;;;;;5078610;28;20452;-74
2021/07/18 04:22:52;;;;;;;10.40;4.50;;;;;;;;;;5077818;28;20491;-73
2021/07/18 04:25:20;;;;;;;8.47;4.50;;;;;;;;;;5078396;28;20445;-73
2021/07/18 04:27:51;;;;;;;12.23;5.50;;;;;;;;;;5077358;28;20480;-73
2021/07/18 04:30:20;;;;;;;9.97;4.50;;;;;;;;;;5077548;28;20545;-73
2021/07/18 04:32:49;;;;;;;8.43;4.53;;;;;;;;;;5077206;28;20457;-73
2021/07/18 04:35:16;;;;;;;10.03;5.50;;;;;;;;;;5077470;28;20486;-73
2021/07/18 04:37:44;;;;;;;9.07;4.50;;;;;;;;;;5078015;28;20490;-73
2021/07/18 04:40:13;;;;;;;9.83;5.37;;;;;;;;;;5077812;28;20452;-73
2021/07/18 04:42:40;;;;;;;6.90;3.90;;;;;;;;;;5077716;28;20464;-73
2021/07/18 04:45:09;;;;;;;12.80;4.53;;;;;;;;;;5077455;28;20532;-73
2021/07/18 04:47:46;;;;;;;7.33;4.37;;;;;;;;;;5077291;28;20867;-73
2021/07/18 04:50:13;;;;;;;10.00;5.47;;;;;;;;;;5077355;28;20710;-73
2021/07/18 04:52:41;;;;;;;8.50;5.03;;;;;;;;;;5077561;28;20461;-72
2021/07/18 04:55:10;;;;;;;10.93;3.73;;;;;;;;;;5077292;28;20796;-73
2021/07/18 04:57:38;;;;;;;8.50;4.50;;;;;;;;;;5077725;28;20522;-73
2021/07/18 05:00:06;;;;;;;16.63;5.20;;;;;;;;;;5077327;28;20799;-73
2021/07/18 05:02:35;;;;;;;13.13;4.73;;;;;;;;;;5077678;28;20468;-74
2021/07/18 05:05:04;;;;;;;9.67;4.90;;;;;;;;;;5077621;28;20445;-73
2021/07/18 05:07:32;;;;;;;9.60;4.80;;;;;;;;;;5077386;28;20464;-73
2021/07/18 05:10:01;;;;;;;7.73;4.83;;;;;;;;;;5076874;28;20449;-73
2021/07/18 05:12:29;;;;;;;10.03;5.30;;;;;;;;;;5081746;28;20872;-73
2021/07/18 05:14:56;;;;;;;6.93;4.60;;;;;;;;;;5098119;28;20457;-73
2021/07/18 05:17:24;;;;;;;10.50;5.97;;;;;;;;;;5097546;28;20487;-73
2021/07/18 05:19:53;;;;;;;10.07;6.87;;;;;;;;;;5097373;28;20454;-73
2021/07/18 05:22:22;;;;;;;15.17;5.80;;;;;;;;;;5097891;28;21028;-72
2021/07/18 05:24:50;;;;;;;9.50;6.63;;;;;;;;;;5096550;28;20435;-72
2021/07/18 05:27:18;;;;;;;8.70;7.77;;;;;;;;;;5097112;28;20452;-72
2021/07/18 05:29:46;;;;;;;8.67;7.73;;;;;;;;;;5097237;28;20600;-73
2021/07/18 05:32:14;;;;;;;15.83;7.70;;;;;;;;;;5097052;28;20876;-73
2021/07/18 05:34:42;;;;;;;9.27;8.27;;;;;;;;;;5096895;28;20779;-72
2021/07/18 05:37:10;;;;;;;11.67;8.40;;;;;;;;;;5097054;28;20487;-72
2021/07/18 05:39:39;;;;;;;11.90;9.97;;;;;;;;;;5096875;28;20848;-72
2021/07/18 05:42:07;;;;;;;12.40;9.20;;;;;;;;;;5097015;28;20776;-73
2021/07/18 05:44:36;;;;;;;12.23;9.43;;;;;;;;;;5097488;28;20455;-73
2021/07/18 05:47:04;;;;;;;10.80;8.17;;;;;;;;;;5097119;28;20538;-73
2021/07/18 05:49:33;;;;;;;8.53;7.63;;;;;;;;;;5097009;28;20458;-72
2021/07/18 05:52:00;;;;;;;10.10;9.10;;;;;;;;;;5096979;28;20536;-72
2021/07/18 05:54:28;;;;;;;12.90;9.37;;;;;;;;;;5096693;28;20447;-72
2021/07/18 05:56:58;;;;;;;9.43;8.30;;;;;;;;;;5096268;28;20498;-72
2021/07/18 05:59:25;;;;;;;9.97;8.97;;;;;;;;;;5095751;28;20459;-73
2021/07/18 06:01:53;;;;;;;10.37;9.37;;;;;;;;;;5096353;28;20456;-72
2021/07/18 06:04:21;;;;;;;12.30;9.03;;;;;;;;;;5096547;28;20916;-73
2021/07/18 06:06:49;;;;;;;9.33;8.00;;;;;;;;;;5096361;28;20517;-71
2021/07/18 06:09:17;;;;;;;9.60;8.60;;;;;;;;;;5096017;28;20492;-72
2021/07/18 06:11:45;;;;;;;13.70;9.67;;;;;;;;;;5096605;28;20467;-73
2021/07/18 06:14:14;;;;;;;9.57;8.57;;;;;;;;;;5096611;28;20521;-73
2021/07/18 06:16:42;;;;;;;9.80;7.90;;;;;;;;;;5096779;28;20826;-73
2021/07/18 06:19:10;;;;;;;8.87;7.23;;;;;;;;;;5096793;28;20451;-73
2021/07/18 06:21:38;;;;;;;8.17;6.73;;;;;;;;;;5096201;28;20483;-73
2021/07/18 06:24:11;;;;;;;11.43;7.10;;;;;;;;;;5096537;28;20520;-72
2021/07/18 06:26:39;;;;;;;7.03;6.43;;;;;;;;;;5096611;28;20494;-73
2021/07/18 06:29:07;;;;;;;9.00;6.07;;;;;;;;;;5096365;28;20485;-73
2021/07/18 06:31:36;;;;;;;8.97;6.00;;;;;;;;;;5095852;28;20463;-73
2021/07/18 06:34:04;;;;;;;8.80;6.33;;;;;;;;;;5095966;28;20464;-73
2021/07/18 06:36:37;;;;;;;6.90;5.73;;;;;;;;;;5095741;28;20702;-73
2021/07/18 06:39:05;;;;;;;6.83;5.70;;;;;;;;;;5096316;28;20709;-72
2021/07/18 06:41:33;;;;;;;6.70;6.10;;;;;;;;;;5096123;28;20473;-72
2021/07/18 06:44:02;;;;;;;8.10;6.97;;;;;;;;;;5096752;28;20732;-73
2021/07/18 06:46:30;;;;;;;7.20;5.00;;;;;;;;;;5095981;28;20812;-73
2021/07/18 06:49:05;;;;;;;11.90;6.50;;;;;;;;;;5096337;28;20452;-74
2021/07/18 06:51:33;;;;;;;8.53;6.53;;;;;;;;;;5100241;28;20458;-74
2021/07/18 06:54:01;;;;;;;7.60;5.13;;;;;;;;;;5098839;28;20921;-71
2021/07/18 06:56:28;;;;;;;8.13;5.70;;;;;;;;;;5099316;28;20519;-73
2021/07/18 06:58:56;;;;;;;11.67;5.30;;;;;;;;;;5099988;28;20479;-73
2021/07/18 07:01:24;;;;;;;7.70;5.50;;;;;;;;;;5099318;28;20447;-72
2021/07/18 07:03:52;;;;;;;5.60;4.87;;;;;;;;;;5099495;28;20514;-73
2021/07/18 07:06:21;;;;;;;6.40;5.73;;;;;;;;;;5099126;28;20477;-72
2021/07/18 07:08:49;;;;;;;6.03;4.77;;;;;;;;;;5098612;28;20801;-72
2021/07/18 07:11:19;;;;;;;6.10;4.40;;;;;;;;;;5099020;28;20455;-72
2021/07/18 07:13:47;;;;;;;6.40;4.37;;;;;;;;;;5099409;28;20468;-72
2021/07/18 07:16:15;;;;;;;4.90;4.40;;;;;;;;;;5098879;28;20487;-72
2021/07/18 07:18:45;;;;;;;5.80;3.50;;;;;;;;;;5099493;28;20464;-72
2021/07/18 07:21:16;;;;;;;8.47;3.77;;;;;;;;;;5083022;28;20464;-73
2021/07/18 07:23:46;;;;;;;7.83;4.27;;;;;;;;;;5078666;28;20467;-73
2021/07/18 07:26:14;;;;;;;4.57;3.80;;;;;;;;;;5078240;28;20501;-73
2021/07/18 07:28:44;;;;;;;4.60;3.50;;;;;;;;;;5078396;28;20455;-73
2021/07/18 07:31:15;;;;;;;5.73;3.40;;;;;;;;;;5078048;28;20429;-74
2021/07/18 07:33:45;;;;;;;4.30;2.93;;;;;;;;;;5078675;28;20525;-74
2021/07/18 07:36:19;;;;;;;9.63;3.00;;;;;;;;;;5079373;28;20819;-74
2021/07/18 07:38:52;;;;;;;5.50;3.50;;;;;;;;;;5078612;28;20521;-74
2021/07/18 07:41:20;;;;;;;6.80;3.37;;;;;;;;;;5078105;28;20449;-73
2021/07/18 07:43:47;;;;;;;8.90;3.40;;;;;;;;;;5078219;28;20456;-74
2021/07/18 07:46:15;;;;;;;9.47;3.20;;;;;;;;;;5078859;28;20464;-74
2021/07/18 07:48:43;;;;;;;9.33;3.00;;;;;;;;;;5078108;28;20504;-74
2021/07/18 07:51:11;;;;;;;5.73;3.20;;;;;;;;;;5078247;28;20850;-74
2021/07/18 07:53:41;;;;;;;5.47;2.73;;;;;;;;;;5080155;28;20469;-73
2021/07/18 07:56:10;;;;;;;3.90;2.83;;;;;;;;;;5079217;28;20460;-73
2021/07/18 07:58:38;;;;;;;4.77;3.07;;;;;;;;;;5077476;28;20510;-73
2021/07/18 08:01:06;;;;;;;4.03;2.23;;;;;;;;;;5071858;28;20460;-73
2021/07/18 08:03:34;;;;;;;3.30;2.40;;;;;;;;;;5077323;28;20465;-73
2021/07/18 08:06:02;;;;;;;6.73;2.53;;;;;;;;;;5078316;28;20888;-73
2021/07/18 08:08:31;;;;;;;5.93;2.33;;;;;;;;;;5078855;28;20518;-73
2021/07/18 08:11:02;;;;;;;5.20;2.00;;;;;;;;;;5077629;28;20534;-74
2021/07/18 08:13:31;;;;;;;4.07;2.40;;;;;;;;;;5077140;28;20721;-73
2021/07/18 08:15:59;;;;;;;3.33;2.30;;;;;;;;;;5076909;28;20488;-73
2021/07/18 08:18:29;;;;;;;3.73;2.10;;;;;;;;;;5077397;28;20444;-73
2021/07/18 08:20:59;;;;;;;4.07;2.17;;;;;;;;;;5077135;28;20448;-73
2021/07/18 08:23:27;;;;;;;5.30;3.03;;;;;;;;;;5076555;28;20535;-73
2021/07/18 08:25:55;;;;;;;9.43;2.40;;;;;;;;;;5077129;28;20876;-73
2021/07/18 08:28:24;;;;;;;3.10;2.00;;;;;;;;;;5077377;28;20441;-74
2021/07/18 08:31:01;;;;;;;5.27;2.70;;;;;;;;;;5076588;28;20460;-74
2021/07/18 08:33:29;;;;;;;4.50;1.77;;;;;;;;;;5077603;28;20456;-74
2021/07/18 08:36:00;;;;;;;2.73;1.50;;;;;;;;;;5077556;28;20444;-73
2021/07/18 08:38:30;;;;;;;3.17;1.67;;;;;;;;;;5076708;28;20484;-73
2021/07/18 08:40:58;;;;;;;3.20;2.17;;;;;;;;;;5070755;28;20861;-73
2021/07/18 08:43:29;;;;;;;5.80;1.60;;;;;;;;;;5075898;28;20548;-73
2021/07/18 08:46:06;;;;;;;4.60;1.90;;;;;;;;;;5076974;28;21116;-74
2021/07/18 08:48:43;;;;;;;6.80;3.13;;;;;;;;;;5076061;28;20494;-73
2021/07/18 08:51:11;;;;;;;4.67;2.07;;;;;;;;;;5076160;28;20861;-72
2021/07/18 08:53:39;;;;;;;3.17;1.90;;;;;;;;;;5076149;28;20475;-72
2021/07/18 08:56:11;;;;;;;5.50;1.80;;;;;;;;;;5076230;28;20542;-73
2021/07/18 08:58:40;;;;;;;4.13;2.30;;;;;;;;;;5075928;28;20456;-74
2021/07/18 09:01:13;;;;;;;2.80;1.90;;;;;;;;;;5076058;28;20883;-73
2021/07/18 09:03:43;;;;;;;3.93;2.27;;;;;;;;;;5077008;28;20464;-74
2021/07/18 09:06:11;;;;;;;4.80;1.60;;;;;;;;;;5076590;28;20471;-73
2021/07/18 09:08:43;;;;;;;3.20;1.70;;;;;;;;;;5076966;28;20521;-73
2021/07/18 09:11:18;;;;;;;3.03;2.23;;;;;;;;;;5077347;28;20893;-72
2021/07/18 09:13:56;;;;;;;6.03;3.00;;;;;;;;;;5076182;28;20578;-73
2021/07/18 09:16:30;;;;;;;5.00;1.90;;;;;;;;;;5075902;28;20484;-73
2021/07/18 09:19:12;;;;;;;3.60;2.00;;;;;;;;;;5075997;28;20468;-73
2021/07/18 09:21:40;;;;;;;5.53;1.87;;;;;;;;;;5075023;28;20452;-74
2021/07/18 09:24:19;;;;;;;2.13;1.47;;;;;;;;;;5076494;28;20526;-73
2021/07/18 09:26:48;;;;;;;4.43;2.50;;;;;;;;;;5074864;28;20884;-73
2021/07/18 09:29:26;;;;;;;2.27;1.50;;;;;;;;;;5056315;28;20458;-73
2021/07/18 09:32:03;;;;;;;3.30;1.50;;;;;;;;;;5055028;28;20877;-73
2021/07/18 09:34:34;;;;;;;2.80;1.50;;;;;;;;;;5055331;28;20557;-73
2021/07/18 09:37:25;;;;;;;5.30;1.80;;;;;;;;;;5054699;28;20785;-72
2021/07/18 09:39:58;;;;;;;6.90;2.73;;;;;;;;;;5055777;28;20503;-74
2021/07/18 09:42:30;;;;;;;2.43;1.80;;;;;;;;;;5055448;28;20453;-73
2021/07/18 09:44:59;;;;;;;2.80;1.83;;;;;;;;;;5065339;28;20498;-74
2021/07/18 09:47:35;;;;;;;3.63;1.87;;;;;;;;;;5083827;28;20484;-73
2021/07/18 09:50:03;;;;;;;4.07;1.87;;;;;;;;;;5075971;28;20788;-73
2021/07/18 09:52:31;;;;;;;3.70;1.80;;;;;;;;;;5074863;28;20448;-73
2021/07/18 09:54:59;;;;;;;3.50;1.97;;;;;;;;;;5075903;28;21187;-74
2021/07/18 09:57:30;;;;;;;5.90;2.27;;;;;;;;;;5075468;28;20561;-73
2021/07/18 09:59:58;;;;;;;4.50;2.10;;;;;;;;;;5075703;28;20900;-73
2021/07/18 10:02:26;;;;;;;4.30;1.67;;;;;;;;;;5075915;28;20857;-73
2021/07/18 10:04:56;;;;;;;5.60;2.00;;;;;;;;;;5076344;28;20527;-74
2021/07/18 10:07:25;;;;;;;5.63;2.50;;;;;;;;;;5075953;28;20515;-73
2021/07/18 10:09:53;;;;;;;4.40;2.07;;;;;;;;;;5074679;28;20504;-73
2021/07/18 10:12:20;;;;;;;2.50;1.70;;;;;;;;;;5075202;28;20457;-73
2021/07/18 10:14:49;;;;;;;3.10;1.80;;;;;;;;;;5073569;28;20653;-73
2021/07/18 10:17:16;;;;;;;3.40;1.77;;;;;;;;;;5073785;28;20484;-74
2021/07/18 10:19:45;;;;;;;4.90;2.40;;;;;;;;;;5074154;28;20456;-74
2021/07/18 10:22:15;;;;;;;3.57;1.87;;;;;;;;;;5074138;28;20472;-73
2021/07/18 10:24:43;;;;;;;3.53;2.30;;;;;;;;;;5073719;28;20456;-73
2021/07/18 10:27:12;;;;;;;5.57;2.10;;;;;;;;;;5074438;28;20849;-73
2021/07/18 10:29:40;;;;;;;6.50;2.20;;;;;;;;;;5075527;28;20783;-74
2021/07/18 10:32:09;;;;;;;4.23;2.07;;;;;;;;;;5074505;28;20899;-73
2021/07/18 10:34:38;;;;;;;3.30;2.23;;;;;;;;;;5074529;28;20801;-73
2021/07/18 10:37:10;;;;;;;4.13;2.10;;;;;;;;;;5074721;28;20499;-73
2021/07/18 10:39:41;;;;;;;3.37;1.60;;;;;;;;;;5074015;28;20460;-73
2021/07/18 10:42:09;;;;;;;8.63;2.07;;;;;;;;;;5073369;28;20537;-73
2021/07/18 10:44:43;;;;;;;8.73;1.57;;;;;;;;;;5074999;28;20444;-73
2021/07/18 10:47:11;;;;;;;2.90;1.70;;;;;;;;;;5067087;28;20468;-73
2021/07/18 10:49:56;;;;;;;3.80;1.50;;;;;;;;;;5074971;28;20468;-73
2021/07/18 10:52:25;;;;;;;4.73;1.73;;;;;;;;;;5068815;28;20488;-74
2021/07/18 10:54:58;;;;;;;7.13;1.77;;;;;;;;;;5076134;28;20536;-74
2021/07/18 10:57:32;;;;;;;2.70;1.20;;;;;;;;;;5076414;28;20487;-73
2021/07/18 11:00:15;;;;;;;4.27;2.20;;;;;;;;;;5075027;28;20448;-73
2021/07/18 11:02:45;;;;;;;2.70;1.30;;;;;;;;;;5074408;28;20452;-72
2021/07/18 11:05:16;;;;;;;4.00;1.50;;;;;;;;;;5066862;28;20452;-73
2021/07/18 11:07:53;;;;;;;4.27;1.50;;;;;;;;;;5074692;28;21024;-74
2021/07/18 11:10:24;;;;;;;2.50;1.50;;;;;;;;;;5068646;28;20451;-72
2021/07/18 11:13:01;;;;;;;3.10;1.33;;;;;;;;;;5074621;28;20448;-72
2021/07/18 11:15:49;;;;;;;2.03;1.00;;;;;;;;;;5074906;28;20463;-73
2021/07/18 11:18:20;;;;;;;2.47;1.43;;;;;;;;;;5075134;28;20583;-74
2021/07/18 11:20:58;;;;;;;7.20;1.47;;;;;;;;;;5074079;28;20458;-73
2021/07/18 11:23:30;;;;;;;4.10;1.47;;;;;;;;;;5065650;28;20456;-73
2021/07/18 11:26:10;;;;;;;6.33;1.70;;;;;;;;;;5074479;28;20474;-73
2021/07/18 11:28:54;;;;;;;5.47;1.60;;;;;;;;;;5074940;28;20452;-75
2021/07/18 11:31:42;;;;;;;3.23;1.20;;;;;;;;;;5074533;28;20456;-74
2021/07/18 11:34:15;;;;;;;2.97;1.27;;;;;;;;;;5073141;28;20487;-73
2021/07/18 11:36:53;;;;;;;3.57;1.43;;;;;;;;;;5078145;28;20489;-74
2021/07/18 11:39:22;;;;;;;2.57;1.10;;;;;;;;;;5078855;28;20537;-74
2021/07/18 11:41:52;;;;;;;3.97;1.47;;;;;;;;;;5079157;28;20496;-74
2021/07/18 11:44:24;;;;;;;5.00;1.90;;;;;;;;;;5078573;28;20448;-74
2021/07/18 11:46:54;;;;;;;5.20;1.00;;;;;;;;;;5078699;28;20559;-74
2021/07/18 11:49:26;;;;;;;3.50;1.10;;;;;;;;;;5077028;28;20476;-73
2021/07/18 11:51:55;;;;;;;4.00;1.30;;;;;;;;;;5078691;28;20770;-74
2021/07/18 11:54:22;;;;;;;4.30;1.30;;;;;;;;;;5079224;28;20456;-73
2021/07/18 11:56:57;;;;;;;2.20;1.10;;;;;;;;;;5079042;28;20464;-73
2021/07/18 11:59:28;;;;;;;2.90;1.20;;;;;;;;;;5078028;28;20472;-73
2021/07/18 12:01:56;;;;;;;3.70;1.67;;;;;;;;;;5076694;28;20449;-73
2021/07/18 12:04:24;;;;;;;3.50;1.30;;;;;;;;;;5076249;28;20448;-73
2021/07/18 12:06:53;;;;;;;2.73;1.00;;;;;;;;;;5077076;28;20437;-73
2021/07/18 12:09:22;;;;;;;4.40;1.13;;;;;;;;;;5077505;28;20445;-73
2021/07/18 12:11:51;;;;;;;2.83;1.17;;;;;;;;;;5076388;28;20788;-73
2021/07/18 12:14:21;;;;;;;3.50;1.00;;;;;;;;;;5077341;28;20456;-73
2021/07/18 12:17:00;;;;;;;3.07;2.03;;;;;;;;;;5075897;28;20847;-74
2021/07/18 12:19:29;;;;;;;2.27;1.23;;;;;;;;;;5064584;28;20951;-74
2021/07/18 12:21:58;;;;;;;4.17;1.23;;;;;;;;;;5076279;28;20740;-74
2021/07/18 12:24:30;;;;;;;3.60;1.10;;;;;;;;;;5070898;28;20490;-73
2021/07/18 12:27:02;;;;;;;3.43;1.23;;;;;;;;;;5076549;28;20447;-74
2021/07/18 12:29:33;;;;;;;1.93;1.20;;;;;;;;;;5076268;28;20449;-73
2021/07/18 12:32:02;;;;;;;2.90;1.50;;;;;;;;;;5075424;28;20464;-72
2021/07/18 12:34:32;;;;;;;4.43;1.13;;;;;;;;;;5075437;28;20448;-72
2021/07/18 12:37:01;;;;;;;4.73;1.30;;;;;;;;;;5074783;28;20844;-72
2021/07/18 12:39:30;;;;;;;2.40;1.30;;;;;;;;;;5076766;28;20488;-73
2021/07/18 12:42:03;;;;;;;3.03;1.30;;;;;;;;;;5075513;28;20514;-73
2021/07/18 12:44:36;;;;;;;2.90;1.27;;;;;;;;;;5076680;28;20890;-73
2021/07/18 12:47:19;;;;;;;2.63;1.20;;;;;;;;;;5075003;28;20848;-73
2021/07/18 12:49:46;;;;;;;3.00;1.10;;;;;;;;;;5075426;28;20487;-73
2021/07/18 12:52:14;;;;;;;3.50;1.90;;;;;;;;;;5076582;28;20452;-72
2021/07/18 12:54:42;;;;;;;4.17;1.30;;;;;;;;;;5076896;28;20468;-73
2021/07/18 12:57:12;;;;;;;2.80;1.10;;;;;;;;;;5076519;28;20448;-72
2021/07/18 12:59:42;;;;;;;4.67;1.30;;;;;;;;;;5075683;28;20480;-72
2021/07/18 13:02:16;;;;;;;5.17;1.47;;;;;;;;;;5075324;28;20460;-73
2021/07/18 13:04:47;;;;;;;3.40;1.53;;;;;;;;;;5059916;28;20449;-73
2021/07/18 13:07:15;;;;;;;6.17;1.50;;;;;;;;;;5055293;28;20533;-73
2021/07/18 13:09:43;;;;;;;3.27;1.40;;;;;;;;;;5057097;28;20869;-71
2021/07/18 13:12:12;;;;;;;4.00;1.20;;;;;;;;;;5071047;28;20458;-74
2021/07/18 13:14:40;;;;;;;2.53;1.23;;;;;;;;;;5056172;28;20452;-75
2021/07/18 13:17:12;;;;;;;2.03;1.10;;;;;;;;;;5063488;28;20467;-73
2021/07/18 13:19:44;;;;;;;2.60;1.00;;;;;;;;;;5076858;28;20497;-73
2021/07/18 13:22:13;;;;;;;2.87;1.00;;;;;;;;;;5058998;28;20487;-74
2021/07/18 13:24:42;;;;;;;3.50;1.27;;;;;;;;;;5069125;28;20748;-74
2021/07/18 13:27:10;;;;;;;3.60;1.27;;;;;;;;;;5072566;28;20464;-74
2021/07/18 13:29:39;;;;;;;4.07;1.30;;;;;;;;;;5073367;28;20738;-73
2021/07/18 13:32:12;;;;;;;2.00;1.10;;;;;;;;;;5075083;28;20474;-73
2021/07/18 13:34:40;;;;;;;2.97;1.20;;;;;;;;;;5075048;28;20472;-74
2021/07/18 13:37:10;;;;;;;2.43;1.20;;;;;;;;;;5072834;28;21324;-74
2021/07/18 13:39:38;;;;;;;5.10;2.17;;;;;;;;;;5055870;28;21060;-74
2021/07/18 13:42:12;;;;;;;2.10;1.00;;;;;;;;;;5060436;28;20465;-73
2021/07/18 13:44:43;;;;;;;4.33;1.80;;;;;;;;;;5055945;28;20611;-74
2021/07/18 13:47:12;;;;;;;5.60;1.47;;;;;;;;;;5055111;28;20468;-74
2021/07/18 13:49:40;;;;;;;2.93;1.30;;;;;;;;;;5056058;28;20454;-75
2021/07/18 13:52:13;;;;;;;4.30;1.17;;;;;;;;;;5061301;28;20464;-75
2021/07/18 13:54:47;;;;;;;3.93;1.40;;;;;;;;;;5074073;28;20448;-75
2021/07/18 13:57:15;;;;;;;3.30;1.33;;;;;;;;;;5064784;28;20456;-73
2021/07/18 13:59:43;;;;;;;2.07;1.03;;;;;;;;;;5069906;28;20837;-73
2021/07/18 14:02:15;;;;;;;3.97;1.10;;;;;;;;;;5062290;28;20467;-74
2021/07/18 14:04:45;;;;;;;3.40;1.60;;;;;;;;;;5076316;28;20449;-74
2021/07/18 14:07:13;;;;;;;3.53;1.20;;;;;;;;;;5075915;28;20448;-74
2021/07/18 14:09:43;;;;;;;1.93;1.00;;;;;;;;;;5075628;28;20455;-73
2021/07/18 14:12:12;;;;;;;4.63;1.07;;;;;;;;;;5057712;28;20513;-73
2021/07/18 14:14:40;;;;;;;4.80;1.50;;;;;;;;;;5071215;28;21032;-74
2021/07/18 14:17:11;;;;;;;2.53;1.10;;;;;;;;;;5073332;28;20455;-74
2021/07/18 14:19:41;;;;;;;2.33;1.07;;;;;;;;;;5075618;28;20519;-74
2021/07/18 14:22:09;;;;;;;3.63;1.10;;;;;;;;;;5074628;28;20468;-74
2021/07/18 14:24:39;;;;;;;4.90;1.27;;;;;;;;;;5075577;28;20448;-73
2021/07/18 14:27:15;;;;;;;2.87;1.20;;;;;;;;;;5075495;28;20479;-74
2021/07/18 14:29:44;;;;;;;6.77;0.93;;;;;;;;;;5073531;28;20852;-74
2021/07/18 14:32:12;;;;;;;4.03;2.20;;;;;;;;;;5074885;28;20511;-73
2021/07/18 14:34:41;;;;;;;3.50;1.20;;;;;;;;;;5074652;28;20924;-74
2021/07/18 14:37:09;;;;;;;12.60;1.37;;;;;;;;;;5074830;28;20849;-72
2021/07/18 14:39:39;;;;;;;3.60;0.93;;;;;;;;;;5074165;28;20492;-72
2021/07/18 14:42:09;;;;;;;4.20;1.60;;;;;;;;;;5074426;28;20575;-73
2021/07/18 14:44:37;;;;;;;2.90;1.17;;;;;;;;;;5058806;28;20456;-74
2021/07/18 14:47:08;;;;;;;3.40;1.37;;;;;;;;;;5074418;28;20452;-74
2021/07/18 14:49:36;;;;;;;5.30;2.20;;;;;;;;;;5073988;28;20531;-74
2021/07/18 14:52:07;;;;;;;2.63;1.30;;;;;;;;;;5075029;28;20469;-74
2021/07/18 14:54:35;;;;;;;4.70;1.10;;;;;;;;;;5074198;28;20474;-74